Terminal Aerodrome Forecast
Issued by NWS

Home | Current Version | Previous Version | Graphics & Text | Print | Product List | Glossary On
Versions: 1 2 3 4 5 6 7 8 9 10 11 12 13 14 15 16 17 18 19 20 21
000
FTUS43 KMPX 220500
TAFRNH
TAF
KRNH 220520Z 2206/2306 15008KT 5SM BR OVC010
     FM220800 14011KT 2SM -DZ BR OVC005
     FM221900 13012KT 1 1/2SM -RA BR OVC006
     FM222300 11011KT 3SM -RASN OVC007
     FM230200 08009KT 3/4SM -SN VV003=

USA.gov is the U.S. government's official web portal to all federal, state and local government web resources and services.